South AfricaFixed distance
Xstrata Longtom Ultra Marathon 56km
26 Mar2011
Distance
56km
Finishers
9789 men8 women
Winning time
3:39:41h
Median pace
11.99km/h
Pace distribution
97 finishers · 7.10–15.29 km/h · mean 11.69
Every finisher ran the same 56 km course, so these paces are directly comparable.
Histogram of finisher pace. 97 finishers ranged from 7.10 to 15.29 kilometres per hour, with a mean of 11.69 and a median of 11.99. The busiest band is 11.5 to 12.0 kilometres per hour, with 19 finishers.
Results
Ranks 51–97 of 97
| Rank | Runner | Time | Pace | Cat. | Placing |
|---|---|---|---|---|---|
| 51 | Eskom Gijimas - MPL | 4:42:39h | 11.89 | M55 | 50th M · 1st M55 |
| 52 | Jeppe Quondam Athletic... | 4:42:53h | 11.88 | M23 | 51st M · 19th M23 |
| 53 | Sunninghill Striders R... | 4:43:16h | 11.86 | M23 | 52nd M · 20th M23 |
| 54 | Anglo Coal AC | 4:43:26h | 11.86 | M23 | 53rd M · 21st M23 |
| 55 | Temp | 4:43:41h | 11.84 | — | 54th M |
| 56 | Lvcc Nedbank Marathon ... | 4:44:14h | 11.82 | M35 | 55th M · 15th M35 |
| 57 | Longtom | 4:46:13h | 11.74 | — | 56th M |
| 58 | Alberton Amateur Athle... | 4:46:14h | 11.74 | M35 | 57th M · 16th M35 |
| 59 | Toyota AC CG | 4:46:28h | 11.73 | M50 | 58th M · 2nd M50 |
| 60 | Bonitas Athletic Club | 4:46:56h | 11.71 | M23 | 59th M · 22nd M23 |
| 61 | Bonitas Athletic Club | 4:47:04h | 11.71 | W35 | 2nd F · 1st W35 |
| 62 | Bonitas Athletic Club | 4:47:05h | 11.70 | — | 60th M |
| 63 | Florida Running Club | 4:47:20h | 11.69 | M23 | 61st M · 23rd M23 |
| 64 | Tuks Marathon Club | 4:47:38h | 11.68 | M35 | 62nd M · 17th M35 |
| 65 | Rand AC | 4:47:47h | 11.68 | W23 | 3rd F · 2nd W23 |
| 66 | Eskom Gijimas | 4:47:47h | 11.68 | M45 | 63rd M · 4th M45 |
| 67 | Manoni Running Club | 4:48:40h | 11.64 | M35 | 64th M · 18th M35 |
| 76 | Temp | 4:53:28h | 11.45 | — | 65th M |
| 83 | Bcc | 4:56:21h | 11.34 | W23 | 4th F · 3rd W23 |
| 90 | Mashishing | 4:58:49h | 11.24 | M40 | 66th M · 10th M40 |
| 100 | Legogote | 5:06:37h | 10.96 | M40 | 67th M · 11th M40 |
| 114 | Rwfl | 5:12:21h | 10.76 | M35 | 68th M · 19th M35 |
| 123 | Sasol | 5:15:29h | 10.65 | M35 | 69th M · 20th M35 |
| 152 | Drdlr | 5:25:56h | 10.31 | W35 | 5th F · 2nd W35 |
| 164 | Brotherhood | 5:30:04h | 10.18 | M23 | 70th M · 24th M23 |
| 178 | Randwater | 5:35:19h | 10.02 | M23 | 71st M · 25th M23 |
| 181 | Manoni | 5:36:15h | 9.99 | M35 | 72nd M · 21st M35 |
| 215 | Natal Carbineers | 5:46:23h | 9.70 | M35 | 73rd M · 22nd M35 |
| 230 | Krugersdorp | 5:51:02h | 9.57 | M50 | 74th M · 3rd M50 |
| 239 | Florida | 5:53:14h | 9.51 | M60 | 75th M · 1st M60 |
| 249 | Nedbank | 5:55:17h | 9.46 | M23 | 76th M · 26th M23 |
| 268 | White City | 5:58:07h | 9.38 | M23 | 77th M · 27th M23 |
| 272 | Carlton | 5:58:33h | 9.37 | M55 | 78th M · 2nd M55 |
| 289 | Carlton | 6:04:07h | 9.23 | M35 | 79th M · 23rd M35 |
| 322 | Brotherhood | 6:10:52h | 9.06 | M40 | 80th M · 12th M40 |
| 335 | Brotherhood | 6:12:25h | 9.02 | M35 | 81st M · 24th M35 |
| 348 | Brotherhood | 6:16:28h | 8.93 | M35 | 82nd M · 25th M35 |
| 354 | Eskom | 6:18:02h | 8.89 | M35 | 83rd M · 26th M35 |
| 357 | Rac | 6:18:29h | 8.88 | M50 | 84th M · 4th M50 |
| 496 | Rwfl | 6:42:15h | 8.35 | M23 | 85th M · 28th M23 |
| 509 | Akasia | 6:45:27h | 8.29 | M40 | 86th M · 13th M40 |
| 511 | Hmk | 6:45:37h | 8.28 | W45 | 6th F · 1st W45 |
| 529 | Eskom | 6:48:43h | 8.22 | W23 | 7th F · 4th W23 |
| 668 | Kinetics | 7:16:07h | 7.70 | M23 | 87th M · 29th M23 |
| 706 | Carnival City | 7:24:40h | 7.56 | W45 | 8th F · 2nd W45 |
| 730 | Vyebo Striders | 7:33:55h | 7.40 | M65 | 88th M · 1st M65 |
| 788 | Rcs Gugs | 7:53:19h | 7.10 | M23 | 89th M · 30th M23 |
- 51Eskom Gijimas - MPL50th M · 1st M55Time4:42:39hPace11.89Cat.M55
- 52Jeppe Quondam Athletic...51st M · 19th M23Time4:42:53hPace11.88Cat.M23
- 53Sunninghill Striders R...52nd M · 20th M23Time4:43:16hPace11.86Cat.M23
- 54Anglo Coal AC53rd M · 21st M23Time4:43:26hPace11.86Cat.M23
- 55Temp54th MTime4:43:41hPace11.84
- 56Lvcc Nedbank Marathon ...55th M · 15th M35Time4:44:14hPace11.82Cat.M35
- 57Longtom56th MTime4:46:13hPace11.74
- 58Alberton Amateur Athle...57th M · 16th M35Time4:46:14hPace11.74Cat.M35
- 59Toyota AC CG58th M · 2nd M50Time4:46:28hPace11.73Cat.M50
- 60Bonitas Athletic Club59th M · 22nd M23Time4:46:56hPace11.71Cat.M23
- 61Bonitas Athletic Club2nd F · 1st W35Time4:47:04hPace11.71Cat.W35
- 62Bonitas Athletic Club60th MTime4:47:05hPace11.70
- 63Florida Running Club61st M · 23rd M23Time4:47:20hPace11.69Cat.M23
- 64Tuks Marathon Club62nd M · 17th M35Time4:47:38hPace11.68Cat.M35
- 65Rand AC3rd F · 2nd W23Time4:47:47hPace11.68Cat.W23
- 66Eskom Gijimas63rd M · 4th M45Time4:47:47hPace11.68Cat.M45
- 67Manoni Running Club64th M · 18th M35Time4:48:40hPace11.64Cat.M35
- 76Temp65th MTime4:53:28hPace11.45
- 83Bcc4th F · 3rd W23Time4:56:21hPace11.34Cat.W23
- 90Mashishing66th M · 10th M40Time4:58:49hPace11.24Cat.M40
- 100Legogote67th M · 11th M40Time5:06:37hPace10.96Cat.M40
- 114Rwfl68th M · 19th M35Time5:12:21hPace10.76Cat.M35
- 123Sasol69th M · 20th M35Time5:15:29hPace10.65Cat.M35
- 152Drdlr5th F · 2nd W35Time5:25:56hPace10.31Cat.W35
- 164Brotherhood70th M · 24th M23Time5:30:04hPace10.18Cat.M23
- 178Randwater71st M · 25th M23Time5:35:19hPace10.02Cat.M23
- 181Manoni72nd M · 21st M35Time5:36:15hPace9.99Cat.M35
- 215Natal Carbineers73rd M · 22nd M35Time5:46:23hPace9.70Cat.M35
- 230Krugersdorp74th M · 3rd M50Time5:51:02hPace9.57Cat.M50
- 239Florida75th M · 1st M60Time5:53:14hPace9.51Cat.M60
- 249Nedbank76th M · 26th M23Time5:55:17hPace9.46Cat.M23
- 268White City77th M · 27th M23Time5:58:07hPace9.38Cat.M23
- 272Carlton78th M · 2nd M55Time5:58:33hPace9.37Cat.M55
- 289Carlton79th M · 23rd M35Time6:04:07hPace9.23Cat.M35
- 322Brotherhood80th M · 12th M40Time6:10:52hPace9.06Cat.M40
- 335Brotherhood81st M · 24th M35Time6:12:25hPace9.02Cat.M35
- 348Brotherhood82nd M · 25th M35Time6:16:28hPace8.93Cat.M35
- 354Eskom83rd M · 26th M35Time6:18:02hPace8.89Cat.M35
- 357Rac84th M · 4th M50Time6:18:29hPace8.88Cat.M50
- 496Rwfl85th M · 28th M23Time6:42:15hPace8.35Cat.M23
- 509Akasia86th M · 13th M40Time6:45:27hPace8.29Cat.M40
- 511Hmk6th F · 1st W45Time6:45:37hPace8.28Cat.W45
- 529Eskom7th F · 4th W23Time6:48:43hPace8.22Cat.W23
- 668Kinetics87th M · 29th M23Time7:16:07hPace7.70Cat.M23
- 706Carnival City8th F · 2nd W45Time7:24:40hPace7.56Cat.W45
- 730Vyebo Striders88th M · 1st M65Time7:33:55hPace7.40Cat.M65
- 788Rcs Gugs89th M · 30th M23Time7:53:19hPace7.10Cat.M23
Showing ranks 51–97 of 97